Time;durP1;ratioP1;P1;durP2;ratioP2;P2;SDS_P1;SDS_P2;PMS_P1;PMS_P2;Temp;Humidity;BMP_temperature;BMP_pressure;BME280_temperature;BME280_humidity;BME280_pressure;Samples;Min_cycle;Max_cycle;Signal;HPM_P1;HPM_P2
2022/12/18 00:00:07;;;;;;;12.40;11.10;;;20.00;52.70;;;;;;4935306;29;20546;-63
2022/12/18 00:02:40;;;;;;;9.80;8.90;;;20.00;52.70;;;;;;4921838;29;20534;-64
2022/12/18 00:05:09;;;;;;;10.43;9.40;;;20.00;52.70;;;;;;4930604;29;20470;-63
2022/12/18 00:07:38;;;;;;;10.00;9.00;;;20.00;52.70;;;;;;4933535;29;20455;-64
2022/12/18 00:10:07;;;;;;;11.10;10.00;;;20.00;52.70;;;;;;4928012;29;20462;-64
2022/12/18 00:12:36;;;;;;;10.40;9.40;;;19.90;52.70;;;;;;4931708;29;20523;-63
2022/12/18 00:15:06;;;;;;;10.67;9.70;;;19.90;52.60;;;;;;4924905;29;20461;-64
2022/12/18 00:17:34;;;;;;;12.33;11.07;;;19.90;52.50;;;;;;4920875;29;20466;-65
2022/12/18 00:20:03;;;;;;;11.47;9.50;;;19.90;52.60;;;;;;4921863;29;20448;-64
2022/12/18 00:22:31;;;;;;;10.57;9.50;;;19.90;52.60;;;;;;4919638;29;20463;-64
2022/12/18 00:24:59;;;;;;;10.57;9.47;;;19.90;52.60;;;;;;4926925;29;20472;-65
2022/12/18 00:27:27;;;;;;;10.50;9.50;;;19.90;52.70;;;;;;4928042;29;20441;-64
2022/12/18 00:29:55;;;;;;;10.43;9.00;;;19.90;52.70;;;;;;4925316;29;20473;-63
2022/12/18 00:32:25;;;;;;;10.30;9.20;;;19.90;52.70;;;;;;4931007;29;20817;-63
2022/12/18 00:34:53;;;;;;;9.37;8.47;;;19.90;52.80;;;;;;4926048;29;20488;-65
2022/12/18 00:37:21;;;;;;;10.40;9.40;;;19.90;52.70;;;;;;4921847;29;20807;-64
2022/12/18 00:39:51;;;;;;;10.57;9.47;;;19.90;52.80;;;;;;4924151;29;20500;-63
2022/12/18 00:45:07;;;;;;;10.20;9.20;;;19.90;52.80;;;;;;4926628;29;20479;-64
2022/12/18 00:47:41;;;;;;;9.13;8.23;;;19.90;52.80;;;;;;4929248;29;20468;-63
2022/12/18 00:50:10;;;;;;;9.07;8.17;;;19.90;52.80;;;;;;4937169;29;20461;-64
2022/12/18 00:52:42;;;;;;;11.13;8.90;;;19.90;52.90;;;;;;4927528;29;20472;-64
2022/12/18 00:55:10;;;;;;;11.50;8.77;;;19.90;52.90;;;;;;4930982;29;20795;-64
2022/12/18 00:57:39;;;;;;;10.30;9.20;;;19.90;52.90;;;;;;4921150;29;20463;-64
2022/12/18 01:00:09;;;;;;;10.90;9.73;;;19.90;52.80;;;;;;4915207;29;20496;-64
2022/12/18 01:02:38;;;;;;;9.73;8.73;;;20.00;52.90;;;;;;4919763;29;20474;-64
2022/12/18 01:05:09;;;;;;;10.07;9.07;;;20.00;52.80;;;;;;4921396;29;20459;-65
2022/12/18 01:07:38;;;;;;;11.03;9.03;;;20.00;52.80;;;;;;4921150;29;20478;-65
2022/12/18 01:10:08;;;;;;;10.77;9.40;;;20.00;52.80;;;;;;4919981;29;20467;-65
2022/12/18 01:12:36;;;;;;;10.20;9.10;;;20.00;52.80;;;;;;4917464;29;20487;-64
2022/12/18 01:15:06;;;;;;;11.07;9.47;;;20.00;52.80;;;;;;4938266;28;20462;-64
2022/12/18 01:17:34;;;;;;;8.77;7.90;;;20.00;52.80;;;;;;4922920;29;20972;-64
2022/12/18 01:20:02;;;;;;;8.30;7.40;;;20.00;52.80;;;;;;4919164;29;20799;-64
2022/12/18 01:22:32;;;;;;;9.10;8.20;;;20.00;52.80;;;;;;4918548;29;20550;-64
2022/12/18 01:25:00;;;;;;;9.10;8.30;;;20.00;52.80;;;;;;4919236;29;20459;-63
2022/12/18 01:27:29;;;;;;;10.17;9.17;;;20.00;52.80;;;;;;4922507;29;20456;-64
2022/12/18 01:29:57;;;;;;;9.90;8.23;;;19.90;52.70;;;;;;4919114;29;20535;-63
2022/12/18 01:32:26;;;;;;;11.17;9.57;;;19.90;52.70;;;;;;4920105;29;20516;-64
2022/12/18 01:34:54;;;;;;;10.60;9.50;;;19.90;52.70;;;;;;4916047;29;20801;-64
2022/12/18 01:37:22;;;;;;;12.50;8.93;;;19.90;52.70;;;;;;4927608;29;20462;-63
2022/12/18 01:39:54;;;;;;;10.70;9.37;;;19.90;52.70;;;;;;4930044;29;20794;-64
2022/12/18 01:42:23;;;;;;;10.20;9.17;;;19.90;52.70;;;;;;4921839;29;20575;-63
2022/12/18 01:45:01;;;;;;;10.53;9.30;;;19.90;52.70;;;;;;4932141;29;20956;-64
2022/12/18 01:47:33;;;;;;;9.10;8.20;;;19.90;52.70;;;;;;4927929;29;21005;-63
2022/12/18 01:50:05;;;;;;;10.13;8.67;;;19.90;52.70;;;;;;4930252;29;20445;-64
2022/12/18 01:52:34;;;;;;;10.37;9.37;;;19.90;52.70;;;;;;4930883;29;20446;-63
2022/12/18 01:55:06;;;;;;;10.70;9.57;;;19.90;52.60;;;;;;4930432;29;20484;-63
2022/12/18 01:57:35;;;;;;;9.93;9.03;;;19.80;52.60;;;;;;4928488;29;20475;-63
2022/12/18 02:00:16;;;;;;;10.03;9.10;;;19.90;52.60;;;;;;4932592;29;20449;-63
2022/12/18 02:02:45;;;;;;;9.53;8.53;;;19.90;52.60;;;;;;4924856;29;20972;-64
2022/12/18 02:05:17;;;;;;;10.33;8.57;;;19.90;52.50;;;;;;4931954;29;20473;-64
2022/12/18 02:07:57;;;;;;;10.33;9.33;;;19.90;52.50;;;;;;4924250;29;20618;-65
2022/12/18 02:10:32;;;;;;;10.10;9.00;;;19.90;52.40;;;;;;4932899;29;20860;-63
2022/12/18 02:13:09;;;;;;;10.60;8.93;;;19.90;52.40;;;;;;4927063;29;20471;-63
2022/12/18 02:15:44;;;;;;;8.20;7.40;;;19.90;52.30;;;;;;4941742;29;20495;-64
2022/12/18 02:18:19;;;;;;;9.40;8.40;;;19.90;52.30;;;;;;4923266;29;20456;-64
2022/12/18 02:20:54;;;;;;;9.00;7.80;;;19.90;52.30;;;;;;4928370;29;20449;-64
2022/12/18 02:23:39;;;;;;;8.80;7.90;;;19.90;52.30;;;;;;4927627;29;20457;-63
2022/12/18 02:26:17;;;;;;;9.73;8.73;;;19.90;52.30;;;;;;4933691;29;20471;-65
2022/12/18 02:28:50;;;;;;;10.30;9.30;;;19.90;52.30;;;;;;4932840;29;20788;-64
2022/12/18 02:31:25;;;;;;;9.60;8.60;;;19.90;52.30;;;;;;4935849;29;20477;-65
2022/12/18 02:33:59;;;;;;;9.70;8.80;;;20.00;52.30;;;;;;4936804;29;20588;-63
2022/12/18 02:36:29;;;;;;;9.07;8.17;;;20.00;52.30;;;;;;4934874;29;20459;-64
2022/12/18 02:39:00;;;;;;;8.27;7.50;;;20.00;52.30;;;;;;4935228;29;20568;-64
2022/12/18 02:41:32;;;;;;;10.23;8.53;;;20.00;52.30;;;;;;4929481;29;20479;-64
2022/12/18 02:44:07;;;;;;;9.70;8.80;;;20.00;52.40;;;;;;4935952;29;20456;-63
2022/12/18 02:46:37;;;;;;;9.57;8.60;;;20.00;52.40;;;;;;4933300;29;20466;-64
2022/12/18 02:49:22;;;;;;;9.13;7.93;;;20.00;52.50;;;;;;4934845;29;20480;-65
2022/12/18 02:51:54;;;;;;;10.47;8.73;;;19.90;52.50;;;;;;4933720;29;20968;-64
2022/12/18 02:54:43;;;;;;;10.00;8.20;;;19.90;52.50;;;;;;4934102;29;20638;-64
2022/12/18 02:57:20;;;;;;;9.07;8.20;;;19.90;52.50;;;;;;4934454;29;20525;-64
2022/12/18 02:59:57;;;;;;;9.10;8.20;;;19.90;52.60;;;;;;4933091;29;20573;-65
2022/12/18 03:02:34;;;;;;;10.33;8.03;;;19.90;52.60;;;;;;4939499;29;20521;-63
2022/12/18 03:05:09;;;;;;;8.50;7.63;;;19.90;52.60;;;;;;4934102;29;20461;-63
2022/12/18 03:07:42;;;;;;;9.60;8.60;;;19.90;52.60;;;;;;4936757;29;20762;-63
2022/12/18 03:10:16;;;;;;;10.13;9.10;;;19.90;52.60;;;;;;4934917;29;20461;-63
2022/12/18 03:12:51;;;;;;;9.30;7.80;;;19.90;52.60;;;;;;4934998;29;20470;-63
2022/12/18 03:15:24;;;;;;;10.17;8.53;;;19.90;52.50;;;;;;4928933;29;20495;-64
2022/12/18 03:18:05;;;;;;;8.50;7.70;;;19.90;52.50;;;;;;4929355;29;20997;-65
2022/12/18 03:20:37;;;;;;;9.57;8.53;;;19.90;52.50;;;;;;4925034;29;20459;-64
2022/12/18 03:23:10;;;;;;;9.87;8.93;;;19.90;52.50;;;;;;4933297;29;20510;-63
2022/12/18 03:25:42;;;;;;;8.53;7.73;;;19.90;52.50;;;;;;4933832;29;20504;-63
2022/12/18 03:28:15;;;;;;;9.20;8.30;;;19.90;52.40;;;;;;4927783;29;20464;-64
2022/12/18 03:30:46;;;;;;;9.83;8.57;;;19.90;52.40;;;;;;4929409;29;20461;-63
2022/12/18 03:33:20;;;;;;;9.90;8.93;;;19.90;52.30;;;;;;4928824;29;20489;-65
2022/12/18 03:35:51;;;;;;;9.63;8.63;;;19.90;52.30;;;;;;4947171;29;21144;-64
2022/12/18 03:38:19;;;;;;;9.13;8.23;;;19.90;52.30;;;;;;4930332;29;20469;-64
2022/12/18 03:40:58;;;;;;;9.77;8.77;;;19.90;52.10;;;;;;4927845;29;20613;-64
2022/12/18 03:43:41;;;;;;;10.50;9.50;;;19.90;52.10;;;;;;4942875;29;21140;-64
2022/12/18 03:46:17;;;;;;;10.73;8.40;;;19.90;52.10;;;;;;4930081;29;20528;-65
2022/12/18 03:48:49;;;;;;;10.10;8.57;;;19.90;52.10;;;;;;4946601;29;20465;-64
2022/12/18 03:51:26;;;;;;;9.83;8.57;;;19.90;52.10;;;;;;4929961;29;20527;-64
2022/12/18 03:53:58;;;;;;;9.30;8.50;;;19.90;52.10;;;;;;4930804;29;20502;-63
2022/12/18 03:56:34;;;;;;;9.83;8.80;;;19.90;52.10;;;;;;4931371;29;21503;-63
2022/12/18 03:59:06;;;;;;;10.10;8.93;;;19.90;51.90;;;;;;4929409;29;20466;-63
2022/12/18 04:01:39;;;;;;;12.00;9.87;;;19.90;51.90;;;;;;4934895;29;20466;-64
2022/12/18 04:04:09;;;;;;;11.00;9.10;;;19.90;51.90;;;;;;4930676;29;20540;-64
2022/12/18 04:06:41;;;;;;;10.10;9.10;;;19.90;51.90;;;;;;4930003;29;20516;-64
2022/12/18 04:09:11;;;;;;;9.77;8.60;;;19.90;51.90;;;;;;4933864;29;20497;-64
2022/12/18 04:11:44;;;;;;;11.63;9.30;;;19.90;51.90;;;;;;4934671;29;20465;-63
2022/12/18 04:14:16;;;;;;;9.67;8.37;;;19.90;52.10;;;;;;4929430;29;20474;-64
2022/12/18 04:16:48;;;;;;;9.90;8.20;;;19.90;52.10;;;;;;4924379;29;20461;-63
2022/12/18 04:19:18;;;;;;;10.30;9.40;;;19.90;52.10;;;;;;4932105;29;20468;-64
2022/12/18 04:21:50;;;;;;;10.50;9.13;;;19.90;52.10;;;;;;4930131;29;20494;-64
2022/12/18 04:24:18;;;;;;;9.37;8.40;;;19.90;52.10;;;;;;4944184;29;20466;-63
2022/12/18 04:26:57;;;;;;;10.57;9.43;;;19.90;52.10;;;;;;4927956;29;20492;-63
2022/12/18 04:29:29;;;;;;;9.73;8.70;;;19.90;52.10;;;;;;4932769;29;20449;-63
2022/12/18 04:31:58;;;;;;;9.17;8.27;;;19.90;52.10;;;;;;4932613;29;20976;-64
2022/12/18 04:34:28;;;;;;;9.40;8.50;;;19.90;52.10;;;;;;4930970;29;20491;-63
2022/12/18 04:36:57;;;;;;;9.83;9.00;;;19.90;52.10;;;;;;4930602;29;20457;-64
2022/12/18 04:39:26;;;;;;;11.20;9.07;;;19.90;52.10;;;;;;4944513;29;20465;-63
2022/12/18 04:42:00;;;;;;;9.77;8.73;;;19.90;52.10;;;;;;4928701;29;20492;-63
2022/12/18 04:44:30;;;;;;;9.60;8.60;;;19.90;52.30;;;;;;4934354;29;20507;-64
2022/12/18 04:46:58;;;;;;;10.43;9.33;;;19.90;52.30;;;;;;4926872;29;20456;-64
2022/12/18 04:49:26;;;;;;;9.67;8.70;;;19.90;52.30;;;;;;4929620;29;20464;-63
2022/12/18 04:51:54;;;;;;;10.60;9.10;;;19.90;52.30;;;;;;4928527;29;20460;-63
2022/12/18 04:54:22;;;;;;;11.60;10.23;;;19.90;52.10;;;;;;4928301;29;20464;-64
2022/12/18 04:56:51;;;;;;;9.77;8.77;;;19.90;52.10;;;;;;4926149;29;20467;-64
2022/12/18 04:59:19;;;;;;;11.23;10.00;;;19.90;52.10;;;;;;4925410;29;20450;-64
2022/12/18 05:01:48;;;;;;;10.73;9.27;;;19.90;52.10;;;;;;4930566;29;20942;-64
2022/12/18 05:04:17;;;;;;;9.27;8.37;;;19.80;52.10;;;;;;4933341;29;20471;-64
2022/12/18 05:06:45;;;;;;;8.80;7.90;;;19.80;52.10;;;;;;4928666;29;20461;-65
2022/12/18 05:09:14;;;;;;;9.17;8.20;;;19.80;52.10;;;;;;4926398;29;20509;-64
2022/12/18 05:11:42;;;;;;;9.93;8.77;;;19.80;52.10;;;;;;4925462;29;20488;-64
2022/12/18 05:14:10;;;;;;;9.10;8.20;;;19.80;52.10;;;;;;4925191;29;20553;-64
2022/12/18 05:16:38;;;;;;;12.57;9.10;;;19.80;52.10;;;;;;4932378;29;20470;-64
2022/12/18 05:19:08;;;;;;;9.50;8.50;;;19.80;51.90;;;;;;4929329;29;20471;-64
2022/12/18 05:21:36;;;;;;;9.90;8.90;;;19.80;51.90;;;;;;4929844;29;20457;-64
2022/12/18 05:24:05;;;;;;;9.47;8.47;;;19.80;51.90;;;;;;4923293;29;20450;-64
2022/12/18 05:26:33;;;;;;;10.23;8.80;;;19.80;51.90;;;;;;4930739;29;20462;-63
2022/12/18 05:29:01;;;;;;;12.57;11.37;;;19.80;51.90;;;;;;4925023;29;20456;-64
2022/12/18 05:31:29;;;;;;;9.83;8.80;;;19.80;51.90;;;;;;4930308;29;20446;-64
2022/12/18 05:34:04;;;;;;;10.57;9.47;;;19.80;51.90;;;;;;4925691;29;20469;-63
2022/12/18 05:36:34;;;;;;;9.13;8.17;;;19.80;51.90;;;;;;4932253;29;20477;-63
2022/12/18 05:39:02;;;;;;;11.50;9.30;;;19.80;51.70;;;;;;4931867;29;20473;-63
2022/12/18 05:41:30;;;;;;;10.33;9.10;;;19.80;51.70;;;;;;4924198;29;20473;-63
2022/12/18 05:43:59;;;;;;;9.03;8.13;;;19.80;51.70;;;;;;4929038;29;20463;-65
2022/12/18 05:46:27;;;;;;;11.03;9.90;;;19.80;51.70;;;;;;4929117;29;20464;-64
2022/12/18 05:48:56;;;;;;;8.97;7.60;;;19.80;51.90;;;;;;4927574;29;20468;-64
2022/12/18 05:51:24;;;;;;;9.60;8.60;;;19.80;51.90;;;;;;4925684;29;20468;-65
2022/12/18 05:53:53;;;;;;;10.30;8.77;;;19.80;51.90;;;;;;4934314;29;20456;-64
2022/12/18 05:56:23;;;;;;;9.77;8.80;;;19.90;51.90;;;;;;4936138;29;20474;-63
2022/12/18 05:58:53;;;;;;;11.87;10.67;;;19.90;51.90;;;;;;4931879;29;20547;-64
2022/12/18 06:01:24;;;;;;;9.03;8.13;;;19.90;51.90;;;;;;4934008;29;20449;-64
2022/12/18 06:03:53;;;;;;;9.60;8.47;;;19.90;51.90;;;;;;4933276;29;20456;-63
2022/12/18 06:06:23;;;;;;;9.80;8.80;;;19.90;52.10;;;;;;4931188;29;20984;-64
2022/12/18 06:08:53;;;;;;;12.07;8.80;;;19.90;52.10;;;;;;4931731;29;20460;-64
2022/12/18 06:11:23;;;;;;;11.27;9.33;;;19.90;52.10;;;;;;4931867;29;20468;-64
2022/12/18 06:13:53;;;;;;;8.50;7.70;;;19.90;52.10;;;;;;4933037;29;20824;-65
2022/12/18 06:16:26;;;;;;;10.00;8.20;;;19.90;52.10;;;;;;4936364;29;20539;-64
2022/12/18 06:18:56;;;;;;;9.33;8.30;;;19.90;52.30;;;;;;4934786;29;20491;-64
2022/12/18 06:21:24;;;;;;;10.30;8.47;;;19.90;52.30;;;;;;4927727;29;20472;-64
2022/12/18 06:23:54;;;;;;;9.63;8.60;;;19.80;52.30;;;;;;4928312;29;20471;-65
2022/12/18 06:26:22;;;;;;;10.93;8.50;;;19.80;52.30;;;;;;4933909;29;20448;-65
2022/12/18 06:28:55;;;;;;;9.47;8.03;;;19.80;52.30;;;;;;4929041;29;20461;-64
2022/12/18 06:31:24;;;;;;;9.47;8.37;;;19.80;52.30;;;;;;4933060;29;20448;-64
2022/12/18 06:33:52;;;;;;;10.80;9.70;;;19.80;52.30;;;;;;4930299;29;20450;-64
2022/12/18 06:36:21;;;;;;;11.17;10.03;;;19.80;52.30;;;;;;4931709;29;20476;-65
2022/12/18 06:38:49;;;;;;;11.20;9.97;;;19.70;52.30;;;;;;4929984;29;20464;-64
2022/12/18 06:41:21;;;;;;;10.17;9.17;;;19.70;52.40;;;;;;4937016;29;20787;-63
2022/12/18 06:43:49;;;;;;;13.73;9.90;;;19.70;52.40;;;;;;4927958;29;20471;-63
2022/12/18 06:46:20;;;;;;;10.07;9.07;;;19.70;52.40;;;;;;4936044;29;20547;-66
2022/12/18 06:48:50;;;;;;;11.50;8.97;;;19.70;52.30;;;;;;4933316;29;20465;-63
2022/12/18 06:51:20;;;;;;;10.30;9.13;;;19.70;52.30;;;;;;4936045;29;20463;-63
2022/12/18 06:53:48;;;;;;;9.73;8.50;;;19.70;52.20;;;;;;4930959;29;20461;-63
2022/12/18 06:56:18;;;;;;;11.67;9.53;;;19.70;52.10;;;;;;4928983;29;20957;-64
2022/12/18 06:58:46;;;;;;;10.13;9.10;;;19.80;52.00;;;;;;4934084;28;20940;-64
2022/12/18 07:01:17;;;;;;;13.00;9.90;;;19.80;52.00;;;;;;4930278;29;20535;-64
2022/12/18 07:03:45;;;;;;;12.07;9.50;;;19.80;51.90;;;;;;4931384;29;20452;-64
2022/12/18 07:06:15;;;;;;;12.37;9.90;;;19.80;51.90;;;;;;4933441;29;20552;-64
2022/12/18 07:08:43;;;;;;;10.03;8.67;;;19.80;51.80;;;;;;4932312;29;20932;-63
2022/12/18 07:11:12;;;;;;;11.43;9.30;;;19.80;51.60;;;;;;4934879;29;20456;-64
2022/12/18 07:13:41;;;;;;;14.13;10.10;;;19.80;51.60;;;;;;4928731;29;20503;-63
2022/12/18 07:16:12;;;;;;;11.53;9.40;;;19.80;51.60;;;;;;4936289;29;20961;-65
2022/12/18 07:18:48;;;;;;;11.07;8.70;;;19.80;51.60;;;;;;4928799;29;20782;-63
2022/12/18 07:21:18;;;;;;;10.10;8.67;;;19.80;51.60;;;;;;4931098;29;20465;-64
2022/12/18 07:23:47;;;;;;;9.53;8.57;;;19.80;51.60;;;;;;4931318;29;20790;-64
2022/12/18 07:26:17;;;;;;;11.20;8.33;;;19.80;51.60;;;;;;4935958;29;20504;-64
2022/12/18 07:28:48;;;;;;;9.83;8.80;;;19.80;51.60;;;;;;4928636;29;20453;-64
2022/12/18 07:31:18;;;;;;;9.43;8.30;;;19.80;51.60;;;;;;4933831;29;20461;-64
2022/12/18 07:33:49;;;;;;;10.40;9.20;;;19.70;51.60;;;;;;4930387;29;20455;-64
2022/12/18 07:36:17;;;;;;;9.73;8.70;;;19.80;51.70;;;;;;4929468;29;20475;-63
2022/12/18 07:38:48;;;;;;;11.40;9.97;;;19.80;51.70;;;;;;4926134;29;20791;-64
2022/12/18 07:41:16;;;;;;;12.43;9.83;;;19.70;51.80;;;;;;4931768;29;20483;-63
2022/12/18 07:43:45;;;;;;;10.67;9.30;;;19.70;51.90;;;;;;4930507;29;20463;-63
2022/12/18 07:46:15;;;;;;;10.23;9.13;;;19.70;52.00;;;;;;4934984;29;20458;-66
2022/12/18 07:48:44;;;;;;;10.40;8.60;;;19.80;52.00;;;;;;4928691;29;20454;-64
2022/12/18 07:51:17;;;;;;;8.70;7.90;;;19.80;52.10;;;;;;4931977;29;20509;-64
2022/12/18 07:53:45;;;;;;;11.20;10.00;;;19.80;52.10;;;;;;4930758;29;20568;-65
2022/12/18 07:56:17;;;;;;;9.00;7.93;;;19.80;52.10;;;;;;4927912;29;20556;-65
2022/12/18 07:58:55;;;;;;;10.83;9.70;;;19.80;52.10;;;;;;4932719;29;20487;-65
2022/12/18 08:01:25;;;;;;;9.63;8.60;;;19.80;52.10;;;;;;4934580;29;20450;-64
2022/12/18 08:03:53;;;;;;;11.93;9.60;;;19.80;52.10;;;;;;4930692;29;20497;-63
2022/12/18 08:06:21;;;;;;;10.90;9.43;;;19.90;52.10;;;;;;4928363;29;20543;-65
2022/12/18 08:08:52;;;;;;;9.63;8.60;;;19.90;51.90;;;;;;4926725;29;20475;-65
2022/12/18 08:11:21;;;;;;;10.43;8.37;;;19.90;51.90;;;;;;4928930;29;20465;-64
2022/12/18 08:13:49;;;;;;;10.60;9.00;;;19.90;51.90;;;;;;4925285;29;20459;-64
2022/12/18 08:16:17;;;;;;;11.00;8.33;;;19.90;51.90;;;;;;4926096;29;20539;-63
2022/12/18 08:18:49;;;;;;;10.80;9.70;;;19.90;51.90;;;;;;4929829;29;20469;-65
2022/12/18 08:21:20;;;;;;;12.80;9.70;;;19.90;51.90;;;;;;4928593;29;20876;-64
2022/12/18 08:23:49;;;;;;;11.53;8.40;;;19.90;51.90;;;;;;4935177;29;20764;-64
2022/12/18 08:26:19;;;;;;;9.27;8.33;;;19.90;51.90;;;;;;4931798;29;20465;-65
2022/12/18 08:28:48;;;;;;;11.57;8.60;;;19.90;51.90;;;;;;4924883;29;20835;-65
2022/12/18 08:31:18;;;;;;;10.43;8.40;;;19.90;51.90;;;;;;4924158;29;20472;-65
2022/12/18 08:33:51;;;;;;;10.47;9.37;;;19.80;51.90;;;;;;4922040;29;20489;-63
2022/12/18 08:36:19;;;;;;;9.13;8.20;;;19.80;51.90;;;;;;4920326;29;20501;-64
2022/12/18 08:38:48;;;;;;;10.87;8.20;;;19.80;51.90;;;;;;4921322;29;20472;-64
2022/12/18 08:41:17;;;;;;;10.33;8.33;;;19.80;51.90;;;;;;4920969;29;20940;-64
2022/12/18 08:46:37;;;;;;;10.80;9.80;;;19.80;51.90;;;;;;4918625;29;20542;-64
2022/12/18 08:49:10;;;;;;;10.47;8.50;;;19.80;51.90;;;;;;4919094;29;20454;-64
2022/12/18 08:51:39;;;;;;;8.97;8.07;;;19.80;51.90;;;;;;4922851;29;20968;-65
2022/12/18 08:54:07;;;;;;;9.80;8.80;;;19.80;51.90;;;;;;4929080;29;20889;-64
2022/12/18 08:56:35;;;;;;;10.30;8.73;;;19.80;51.90;;;;;;4924107;29;20484;-65
2022/12/18 08:59:05;;;;;;;8.50;7.60;;;19.80;51.70;;;;;;4929981;29;20920;-64
2022/12/18 09:01:33;;;;;;;10.50;8.90;;;19.80;51.70;;;;;;4926570;29;20478;-64
2022/12/18 09:04:02;;;;;;;9.10;8.17;;;19.80;51.70;;;;;;4926560;29;20469;-65
2022/12/18 09:06:33;;;;;;;9.27;8.30;;;19.90;51.60;;;;;;4921672;29;20464;-65
2022/12/18 09:09:01;;;;;;;10.80;8.60;;;19.90;51.60;;;;;;4924644;29;20492;-64
2022/12/18 09:11:30;;;;;;;10.03;8.37;;;19.90;51.60;;;;;;4926559;29;20481;-66
2022/12/18 09:13:58;;;;;;;10.23;8.10;;;19.90;51.40;;;;;;4924491;29;20464;-64
2022/12/18 09:16:28;;;;;;;9.70;8.67;;;19.90;51.40;;;;;;4920437;29;20472;-65
2022/12/18 09:19:00;;;;;;;9.27;8.30;;;19.90;51.40;;;;;;4925542;29;20978;-64
2022/12/18 09:21:31;;;;;;;9.20;8.30;;;19.90;51.40;;;;;;4922441;29;20464;-64
2022/12/18 09:24:05;;;;;;;11.90;9.73;;;19.90;51.40;;;;;;4929702;29;20446;-64
2022/12/18 09:26:36;;;;;;;8.97;7.83;;;19.90;51.40;;;;;;4918935;29;20466;-64
2022/12/18 09:29:08;;;;;;;10.00;9.00;;;20.00;51.60;;;;;;4930908;29;20509;-64
2022/12/18 09:31:37;;;;;;;9.77;8.77;;;19.90;51.60;;;;;;4930230;29;20526;-65
2022/12/18 09:34:05;;;;;;;10.83;8.30;;;20.00;51.60;;;;;;4930146;29;20485;-64
2022/12/18 09:36:33;;;;;;;11.30;8.43;;;20.00;51.70;;;;;;4926438;29;20953;-65
2022/12/18 09:39:02;;;;;;;10.60;8.47;;;20.00;51.70;;;;;;4941484;28;20491;-64
2022/12/18 09:41:47;;;;;;;8.47;7.70;;;19.90;51.90;;;;;;4926826;29;21078;-68
2022/12/18 09:44:20;;;;;;;10.07;8.27;;;19.90;51.90;;;;;;4930494;29;20945;-65
2022/12/18 09:46:54;;;;;;;8.30;7.37;;;19.90;52.10;;;;;;4928769;29;20499;-66
2022/12/18 09:49:27;;;;;;;9.60;7.70;;;19.90;52.10;;;;;;4927438;29;20461;-63
2022/12/18 09:51:58;;;;;;;10.90;7.07;;;19.90;52.10;;;;;;4923934;29;20468;-62
2022/12/18 09:54:32;;;;;;;8.73;7.93;;;19.90;52.30;;;;;;4929236;29;20548;-61
2022/12/18 09:57:02;;;;;;;8.10;7.30;;;19.90;52.30;;;;;;4932646;29;20453;-63
2022/12/18 09:59:36;;;;;;;9.03;7.87;;;19.90;52.30;;;;;;4924361;29;20550;-63
2022/12/18 10:02:15;;;;;;;8.80;7.90;;;19.90;52.40;;;;;;4926298;29;20464;-67
2022/12/18 10:04:45;;;;;;;8.87;7.90;;;19.90;52.40;;;;;;4927693;29;20908;-62
2022/12/18 10:07:20;;;;;;;9.70;8.47;;;20.00;52.40;;;;;;4923671;29;20556;-64
2022/12/18 10:09:57;;;;;;;11.17;8.10;;;20.00;52.40;;;;;;4926599;29;20579;-63
2022/12/18 10:12:35;;;;;;;8.47;7.67;;;20.00;52.40;;;;;;4924871;29;20561;-64
2022/12/18 10:15:13;;;;;;;8.60;7.73;;;20.00;52.40;;;;;;4925089;29;20997;-63
2022/12/18 10:17:50;;;;;;;7.50;6.70;;;20.00;52.30;;;;;;4924824;29;20486;-63
2022/12/18 10:20:25;;;;;;;7.93;6.90;;;20.00;52.30;;;;;;4927479;29;20469;-63
2022/12/18 10:23:04;;;;;;;8.83;8.00;;;20.10;52.30;;;;;;4926680;29;20984;-64
2022/12/18 10:25:40;;;;;;;8.60;7.73;;;20.10;52.20;;;;;;4929653;29;20457;-63
2022/12/18 10:28:13;;;;;;;8.93;7.57;;;20.10;52.20;;;;;;4925474;29;20472;-64
2022/12/18 10:30:43;;;;;;;7.87;6.90;;;20.10;52.20;;;;;;4933025;29;20481;-66
2022/12/18 10:33:14;;;;;;;7.57;6.83;;;20.10;52.20;;;;;;4924462;29;20457;-65
2022/12/18 10:35:43;;;;;;;9.30;7.50;;;20.10;52.20;;;;;;4933533;29;21038;-66
2022/12/18 10:38:25;;;;;;;8.53;7.20;;;20.10;52.20;;;;;;4928691;29;20474;-63
2022/12/18 10:40:56;;;;;;;7.53;6.83;;;20.10;52.20;;;;;;4929478;29;20837;-66
2022/12/18 10:43:27;;;;;;;9.20;7.70;;;20.10;52.20;;;;;;4930364;29;20528;-66
2022/12/18 10:46:02;;;;;;;7.50;6.63;;;20.10;52.20;;;;;;4933606;29;20438;-65
2022/12/18 10:48:32;;;;;;;10.40;7.27;;;20.10;52.30;;;;;;4927994;29;20801;-66
2022/12/18 10:51:01;;;;;;;7.67;6.97;;;20.00;52.50;;;;;;4927041;29;20478;-64
2022/12/18 10:53:43;;;;;;;8.27;7.00;;;20.00;52.60;;;;;;4929255;29;20464;-62
2022/12/18 10:56:11;;;;;;;11.00;7.13;;;20.10;52.50;;;;;;4925982;29;20463;-62
2022/12/18 10:58:41;;;;;;;7.53;6.70;;;20.10;52.50;;;;;;4925174;29;20469;-63
2022/12/18 11:01:11;;;;;;;7.03;6.27;;;20.10;52.50;;;;;;4924941;29;20513;-68
2022/12/18 11:03:42;;;;;;;6.87;6.17;;;20.10;52.50;;;;;;4928938;29;20532;-64
2022/12/18 11:06:12;;;;;;;6.57;5.97;;;20.10;52.50;;;;;;4924543;29;20552;-66
2022/12/18 11:08:42;;;;;;;6.53;5.83;;;20.10;52.60;;;;;;4923647;29;20882;-62
2022/12/18 11:11:20;;;;;;;7.63;6.90;;;20.10;52.60;;;;;;4924815;29;20857;-64
2022/12/18 11:14:05;;;;;;;6.83;5.80;;;20.10;52.60;;;;;;4932962;29;20500;-62
2022/12/18 11:16:38;;;;;;;7.57;6.23;;;20.20;52.60;;;;;;4925299;29;20545;-71
2022/12/18 11:19:22;;;;;;;8.43;6.13;;;20.20;52.60;;;;;;4927118;29;20486;-66
2022/12/18 11:21:50;;;;;;;7.40;6.00;;;20.20;52.70;;;;;;4925584;29;20450;-69
2022/12/18 11:24:28;;;;;;;6.57;5.97;;;20.30;52.70;;;;;;4927720;29;20457;-63
2022/12/18 11:26:56;;;;;;;6.80;6.10;;;20.30;52.70;;;;;;4928719;29;20549;-65
2022/12/18 11:29:33;;;;;;;6.30;5.70;;;20.30;52.60;;;;;;4930147;29;20978;-64
2022/12/18 11:32:34;;;;;;;6.50;5.90;;;20.30;52.60;;;;;;4923044;29;20491;-66
2022/12/18 11:35:12;;;;;;;6.07;5.43;;;20.40;52.60;;;;;;4930271;29;20502;-67
2022/12/18 11:37:43;;;;;;;6.00;5.40;;;20.40;52.60;;;;;;4925156;29;20478;-67
2022/12/18 11:40:19;;;;;;;7.37;6.63;;;20.40;52.60;;;;;;4928883;29;20505;-63
2022/12/18 11:42:52;;;;;;;9.07;5.63;;;20.30;52.60;;;;;;4930718;29;20501;-66
2022/12/18 11:45:31;;;;;;;6.83;6.20;;;20.30;53.20;;;;;;4926681;29;20477;-66
2022/12/18 11:48:05;;;;;;;6.17;5.40;;;20.30;53.50;;;;;;4929124;29;20576;-65
2022/12/18 11:50:43;;;;;;;6.63;5.73;;;20.30;53.50;;;;;;4925056;29;20469;-65
2022/12/18 11:53:13;;;;;;;6.80;6.20;;;20.30;53.70;;;;;;4932248;29;20551;-64
2022/12/18 11:55:50;;;;;;;8.07;5.90;;;20.20;53.70;;;;;;4921998;29;20986;-65
2022/12/18 11:58:30;;;;;;;7.90;6.50;;;20.20;53.70;;;;;;4925653;29;20452;-65
2022/12/18 12:01:08;;;;;;;6.00;5.40;;;20.20;53.70;;;;;;4923051;29;20993;-63
2022/12/18 12:04:04;;;;;;;9.47;6.30;;;20.10;53.60;;;;;;4921011;29;20458;-64
2022/12/18 12:06:40;;;;;;;9.00;5.63;;;20.10;53.60;;;;;;4926232;29;20462;-64
2022/12/18 12:09:16;;;;;;;8.37;5.97;;;20.00;53.50;;;;;;4926397;29;20449;-64
2022/12/18 12:11:59;;;;;;;6.10;5.50;;;20.00;53.50;;;;;;4920722;29;20467;-63
2022/12/18 12:14:43;;;;;;;10.93;5.90;;;20.00;53.40;;;;;;4926331;29;20474;-67
2022/12/18 12:17:19;;;;;;;7.27;5.70;;;20.00;53.60;;;;;;4926942;29;20460;-64
2022/12/18 12:19:54;;;;;;;7.47;5.83;;;20.00;53.60;;;;;;4924153;29;20476;-64
2022/12/18 12:22:29;;;;;;;7.60;5.27;;;20.00;53.60;;;;;;4934434;29;20448;-64
2022/12/18 12:25:16;;;;;;;6.83;5.00;;;20.00;53.50;;;;;;4934093;29;20527;-65
2022/12/18 12:27:56;;;;;;;6.60;5.93;;;20.00;53.40;;;;;;4934946;29;20463;-65
2022/12/18 12:30:34;;;;;;;6.10;5.20;;;20.00;53.20;;;;;;4930238;29;20445;-65
2022/12/18 12:33:23;;;;;;;7.17;5.37;;;20.00;53.10;;;;;;4929641;29;20547;-65
2022/12/18 12:36:01;;;;;;;7.43;6.07;;;20.10;53.00;;;;;;4927267;29;21460;-63
2022/12/18 12:38:34;;;;;;;5.93;5.33;;;20.10;52.90;;;;;;4924642;29;21165;-64
2022/12/18 12:43:12;;;;;;;7.07;6.33;;;20.10;52.80;;;;;;4930167;29;20807;-65
2022/12/18 12:43:58;;;;;;;5.87;5.30;;;20.10;52.70;;;;;;4927585;29;20974;-65
2022/12/18 12:46:28;;;;;;;6.63;6.03;;;20.10;52.70;;;;;;4929994;29;20463;-66
2022/12/18 12:49:00;;;;;;;6.53;5.30;;;20.10;52.60;;;;;;4927585;29;20813;-65
2022/12/18 12:51:30;;;;;;;7.70;6.13;;;20.10;52.60;;;;;;4932429;29;20473;-64
2022/12/18 12:54:01;;;;;;;6.33;5.83;;;20.10;52.60;;;;;;4923148;29;20476;-64
2022/12/18 12:56:40;;;;;;;5.80;5.20;;;20.10;52.50;;;;;;4930281;29;21051;-64
2022/12/18 12:59:18;;;;;;;5.87;4.93;;;20.10;52.50;;;;;;4928596;29;20953;-65
2022/12/18 13:01:55;;;;;;;5.30;4.80;;;20.10;52.60;;;;;;4928959;29;20467;-64
2022/12/18 13:04:36;;;;;;;6.27;5.60;;;20.10;52.60;;;;;;4927023;29;20462;-64
2022/12/18 13:07:11;;;;;;;6.00;5.10;;;20.00;52.60;;;;;;4930843;29;20446;-64
2022/12/18 13:10:23;;;;;;;5.70;5.10;;;20.00;52.70;;;;;;4932448;29;20507;-66
2022/12/18 13:12:56;;;;;;;8.10;5.47;;;20.00;52.70;;;;;;4932250;29;20453;-64